sensor_id;sensor_type;location;lat;lon;timestamp;pressure;altitude;pressure_sealevel;temperature;humidity
10093;BME280;5085;48.092;11.484;2023-03-13T00:02:14;94856.66;;;5.23;100.00
10093;BME280;5085;48.092;11.484;2023-03-13T00:04:40;94853.41;;;5.21;100.00
10093;BME280;5085;48.092;11.484;2023-03-13T00:07:06;94847.75;;;5.17;100.00
10093;BME280;5085;48.092;11.484;2023-03-13T00:09:32;94842.09;;;5.14;100.00
10093;BME280;5085;48.092;11.484;2023-03-13T00:11:58;94839.94;;;5.11;100.00
10093;BME280;5085;48.092;11.484;2023-03-13T00:14:24;94835.91;;;5.08;100.00
10093;BME280;5085;48.092;11.484;2023-03-13T00:16:50;94827.34;;;5.06;100.00
10093;BME280;5085;48.092;11.484;2023-03-13T00:19:16;94828.63;;;5.04;100.00
10093;BME280;5085;48.092;11.484;2023-03-13T00:21:42;94823.78;;;5.00;100.00
10093;BME280;5085;48.092;11.484;2023-03-13T00:24:10;94817.34;;;4.96;100.00
10093;BME280;5085;48.092;11.484;2023-03-13T00:26:37;94817.28;;;4.91;100.00
10093;BME280;5085;48.092;11.484;2023-03-13T00:29:03;94817.22;;;4.86;100.00
10093;BME280;5085;48.092;11.484;2023-03-13T00:31:30;94811.81;;;4.81;100.00
10093;BME280;5085;48.092;11.484;2023-03-13T00:33:59;94814.63;;;4.74;100.00
10093;BME280;5085;48.092;11.484;2023-03-13T00:36:35;94806.31;;;4.71;100.00
10093;BME280;5085;48.092;11.484;2023-03-13T00:39:04;94799.06;;;4.66;100.00
10093;BME280;5085;48.092;11.484;2023-03-13T00:41:33;94798.75;;;4.63;100.00
10093;BME280;5085;48.092;11.484;2023-03-13T00:44:00;94790.44;;;4.59;100.00
10093;BME280;5085;48.092;11.484;2023-03-13T00:46:27;94788.25;;;4.56;100.00
10093;BME280;5085;48.092;11.484;2023-03-13T00:48:54;94789.00;;;4.51;100.00
10093;BME280;5085;48.092;11.484;2023-03-13T00:51:22;94789.47;;;4.48;100.00
10093;BME280;5085;48.092;11.484;2023-03-13T00:53:52;94794.75;;;4.43;100.00
10093;BME280;5085;48.092;11.484;2023-03-13T00:56:19;94790.38;;;4.37;100.00
10093;BME280;5085;48.092;11.484;2023-03-13T00:58:46;94785.47;;;4.29;100.00
10093;BME280;5085;48.092;11.484;2023-03-13T01:01:20;94790.16;;;4.22;100.00
10093;BME280;5085;48.092;11.484;2023-03-13T01:03:56;94790.81;;;4.12;100.00
10093;BME280;5085;48.092;11.484;2023-03-13T01:06:24;94781.38;;;4.05;100.00
10093;BME280;5085;48.092;11.484;2023-03-13T01:08:51;94778.84;;;3.98;100.00
10093;BME280;5085;48.092;11.484;2023-03-13T01:11:23;94773.44;;;3.93;100.00
10093;BME280;5085;48.092;11.484;2023-03-13T01:13:59;94768.03;;;3.88;100.00
10093;BME280;5085;48.092;11.484;2023-03-13T01:16:28;94775.72;;;3.84;100.00
10093;BME280;5085;48.092;11.484;2023-03-13T01:18:56;94767.63;;;3.79;100.00
10093;BME280;5085;48.092;11.484;2023-03-13T01:21:24;94771.91;;;3.80;100.00
10093;BME280;5085;48.092;11.484;2023-03-13T01:23:51;94766.59;;;3.80;100.00
10093;BME280;5085;48.092;11.484;2023-03-13T01:26:19;94765.78;;;3.80;100.00
10093;BME280;5085;48.092;11.484;2023-03-13T01:28:45;94757.53;;;3.81;100.00
10093;BME280;5085;48.092;11.484;2023-03-13T01:33:44;94756.41;;;3.77;100.00
10093;BME280;5085;48.092;11.484;2023-03-13T01:36:10;94752.13;;;3.76;100.00
10093;BME280;5085;48.092;11.484;2023-03-13T01:38:37;94749.94;;;3.73;100.00
10093;BME280;5085;48.092;11.484;2023-03-13T01:41:05;94741.41;;;3.71;100.00
10093;BME280;5085;48.092;11.484;2023-03-13T01:43:33;94750.13;;;3.66;100.00
10093;BME280;5085;48.092;11.484;2023-03-13T01:46:12;94752.69;;;3.61;100.00
10093;BME280;5085;48.092;11.484;2023-03-13T01:48:51;94747.03;;;3.58;100.00
10093;BME280;5085;48.092;11.484;2023-03-13T01:51:44;94750.19;;;3.55;100.00
10093;BME280;5085;48.092;11.484;2023-03-13T01:54:41;94748.00;;;3.51;100.00
10093;BME280;5085;48.092;11.484;2023-03-13T01:57:28;94749.19;;;3.44;100.00
10093;BME280;5085;48.092;11.484;2023-03-13T02:00:07;94740.91;;;3.40;100.00
10093;BME280;5085;48.092;11.484;2023-03-13T02:02:50;94736.50;;;3.34;100.00
10093;BME280;5085;48.092;11.484;2023-03-13T02:05:19;94731.91;;;3.30;100.00
10093;BME280;5085;48.092;11.484;2023-03-13T02:07:50;94719.31;;;3.25;100.00
10093;BME280;5085;48.092;11.484;2023-03-13T02:10:19;94721.09;;;3.19;100.00
10093;BME280;5085;48.092;11.484;2023-03-13T02:12:47;94721.81;;;3.15;100.00
10093;BME280;5085;48.092;11.484;2023-03-13T02:15:18;94720.19;;;3.14;100.00
10093;BME280;5085;48.092;11.484;2023-03-13T02:17:46;94716.16;;;3.11;100.00
10093;BME280;5085;48.092;11.484;2023-03-13T02:20:15;94717.44;;;3.09;100.00
10093;BME280;5085;48.092;11.484;2023-03-13T02:22:48;94721.94;;;3.08;100.00
10093;BME280;5085;48.092;11.484;2023-03-13T02:28:04;94724.34;;;3.10;100.00
10093;BME280;5085;48.092;11.484;2023-03-13T02:30:35;94720.69;;;3.11;100.00
10093;BME280;5085;48.092;11.484;2023-03-13T02:33:02;94729.22;;;3.13;100.00
10093;BME280;5085;48.092;11.484;2023-03-13T02:35:29;94729.78;;;3.15;100.00
10093;BME280;5085;48.092;11.484;2023-03-13T02:38:03;94728.50;;;3.17;100.00
10093;BME280;5085;48.092;11.484;2023-03-13T02:40:35;94740.53;;;3.20;100.00
10093;BME280;5085;48.092;11.484;2023-03-13T02:43:07;94735.53;;;3.23;100.00
10093;BME280;5085;48.092;11.484;2023-03-13T02:45:36;94733.19;;;3.27;100.00
10093;BME280;5085;48.092;11.484;2023-03-13T02:48:03;94736.69;;;3.28;100.00
10093;BME280;5085;48.092;11.484;2023-03-13T02:50:29;94739.41;;;3.33;100.00
10093;BME280;5085;48.092;11.484;2023-03-13T02:53:01;94742.88;;;3.33;100.00
10093;BME280;5085;48.092;11.484;2023-03-13T02:55:35;94744.28;;;3.36;100.00
10093;BME280;5085;48.092;11.484;2023-03-13T02:58:03;94738.69;;;3.37;100.00
10093;BME280;5085;48.092;11.484;2023-03-13T03:00:33;94741.38;;;3.37;100.00
10093;BME280;5085;48.092;11.484;2023-03-13T03:03:00;94741.38;;;3.37;100.00
10093;BME280;5085;48.092;11.484;2023-03-13T03:05:26;94737.66;;;3.38;100.00
10093;BME280;5085;48.092;11.484;2023-03-13T03:07:52;94739.25;;;3.39;100.00
10093;BME280;5085;48.092;11.484;2023-03-13T03:10:18;94735.88;;;3.44;100.00
10093;BME280;5085;48.092;11.484;2023-03-13T03:12:45;94728.47;;;3.46;100.00
10093;BME280;5085;48.092;11.484;2023-03-13T03:15:11;94727.75;;;3.50;100.00
10093;BME280;5085;48.092;11.484;2023-03-13T03:17:42;94732.34;;;3.55;100.00
10093;BME280;5085;48.092;11.484;2023-03-13T03:20:09;94734.88;;;3.62;100.00
10093;BME280;5085;48.092;11.484;2023-03-13T03:22:38;94737.63;;;3.67;100.00
10093;BME280;5085;48.092;11.484;2023-03-13T03:25:06;94735.03;;;3.72;100.00
10093;BME280;5085;48.092;11.484;2023-03-13T03:27:35;94744.72;;;3.78;100.00
10093;BME280;5085;48.092;11.484;2023-03-13T03:30:04;94737.84;;;3.82;100.00
10093;BME280;5085;48.092;11.484;2023-03-13T03:32:32;94736.91;;;3.88;100.00
10093;BME280;5085;48.092;11.484;2023-03-13T03:34:59;94744.16;;;3.93;100.00
10093;BME280;5085;48.092;11.484;2023-03-13T03:37:25;94735.44;;;3.97;100.00
10093;BME280;5085;48.092;11.484;2023-03-13T03:39:51;94736.81;;;4.00;100.00
10093;BME280;5085;48.092;11.484;2023-03-13T03:42:17;94729.94;;;4.04;100.00
10093;BME280;5085;48.092;11.484;2023-03-13T03:44:44;94723.09;;;4.08;100.00
10093;BME280;5085;48.092;11.484;2023-03-13T03:47:11;94731.38;;;4.12;100.00
10093;BME280;5085;48.092;11.484;2023-03-13T03:49:41;94727.44;;;4.14;100.00
10093;BME280;5085;48.092;11.484;2023-03-13T03:52:10;94718.94;;;4.17;100.00
10093;BME280;5085;48.092;11.484;2023-03-13T03:54:39;94725.63;;;4.20;100.00
10093;BME280;5085;48.092;11.484;2023-03-13T03:57:05;94721.69;;;4.22;100.00
10093;BME280;5085;48.092;11.484;2023-03-13T03:59:32;94718.75;;;4.24;100.00
10093;BME280;5085;48.092;11.484;2023-03-13T04:02:16;94718.28;;;4.27;100.00
10093;BME280;5085;48.092;11.484;2023-03-13T04:04:44;94715.38;;;4.29;100.00
10093;BME280;5085;48.092;11.484;2023-03-13T04:07:17;94715.13;;;4.30;100.00
10093;BME280;5085;48.092;11.484;2023-03-13T04:09:43;94708.25;;;4.34;100.00
10093;BME280;5085;48.092;11.484;2023-03-13T04:12:20;94690.97;;;4.37;100.00
10093;BME280;5085;48.092;11.484;2023-03-13T04:14:47;94703.00;;;4.39;100.00
10093;BME280;5085;48.092;11.484;2023-03-13T04:17:14;94688.59;;;4.40;100.00
10093;BME280;5085;48.092;11.484;2023-03-13T04:19:42;94689.72;;;4.44;100.00
10093;BME280;5085;48.092;11.484;2023-03-13T04:22:08;94686.25;;;4.44;100.00
10093;BME280;5085;48.092;11.484;2023-03-13T04:24:43;94677.19;;;4.45;100.00
10093;BME280;5085;48.092;11.484;2023-03-13T04:27:09;94667.13;;;4.47;100.00
10093;BME280;5085;48.092;11.484;2023-03-13T04:29:35;94667.66;;;4.49;100.00
10093;BME280;5085;48.092;11.484;2023-03-13T04:32:27;94664.75;;;4.50;100.00
10093;BME280;5085;48.092;11.484;2023-03-13T04:35:14;94657.31;;;4.53;100.00
10093;BME280;5085;48.092;11.484;2023-03-13T04:37:53;94650.69;;;4.55;100.00
10093;BME280;5085;48.092;11.484;2023-03-13T04:40:38;94649.13;;;4.59;100.00
10093;BME280;5085;48.092;11.484;2023-03-13T04:43:16;94653.72;;;4.64;100.00
10093;BME280;5085;48.092;11.484;2023-03-13T04:46:08;94646.84;;;4.68;100.00
10093;BME280;5085;48.092;11.484;2023-03-13T04:48:49;94639.13;;;4.71;100.00
10093;BME280;5085;48.092;11.484;2023-03-13T04:51:24;94637.34;;;4.77;100.00
10093;BME280;5085;48.092;11.484;2023-03-13T04:53:58;94637.38;;;4.82;100.00
10093;BME280;5085;48.092;11.484;2023-03-13T04:56:48;94625.16;;;4.86;100.00
10093;BME280;5085;48.092;11.484;2023-03-13T04:59:26;94617.19;;;4.91;100.00
10093;BME280;5085;48.092;11.484;2023-03-13T05:01:59;94615.63;;;4.95;100.00
10093;BME280;5085;48.092;11.484;2023-03-13T05:04:37;94620.22;;;5.00;100.00
10093;BME280;5085;48.092;11.484;2023-03-13T05:07:26;94616.47;;;5.01;100.00
10093;BME280;5085;48.092;11.484;2023-03-13T05:10:06;94621.31;;;5.04;100.00
10093;BME280;5085;48.092;11.484;2023-03-13T05:12:52;94609.59;;;5.05;100.00
10093;BME280;5085;48.092;11.484;2023-03-13T05:15:47;94615.50;;;5.07;100.00
10093;BME280;5085;48.092;11.484;2023-03-13T05:18:52;94615.78;;;5.11;100.00
10093;BME280;5085;48.092;11.484;2023-03-13T05:21:36;94606.47;;;5.13;100.00
10093;BME280;5085;48.092;11.484;2023-03-13T05:24:14;94590.22;;;5.15;100.00
10093;BME280;5085;48.092;11.484;2023-03-13T05:26:51;94605.47;;;5.19;100.00
10093;BME280;5085;48.092;11.484;2023-03-13T05:29:35;94601.47;;;5.22;100.00
10093;BME280;5085;48.092;11.484;2023-03-13T05:32:33;94602.34;;;5.28;100.00
10093;BME280;5085;48.092;11.484;2023-03-13T05:35:14;94585.78;;;5.31;100.00
10093;BME280;5085;48.092;11.484;2023-03-13T05:37:55;94595.16;;;5.33;100.00
10093;BME280;5085;48.092;11.484;2023-03-13T05:40:44;94586.66;;;5.36;100.00
10093;BME280;5085;48.092;11.484;2023-03-13T05:43:45;94584.00;;;5.41;100.00
10093;BME280;5085;48.092;11.484;2023-03-13T05:46:29;94577.09;;;5.45;100.00
10093;BME280;5085;48.092;11.484;2023-03-13T05:49:14;94575.25;;;5.51;100.00
10093;BME280;5085;48.092;11.484;2023-03-13T05:51:46;94586.81;;;5.57;100.00
10093;BME280;5085;48.092;11.484;2023-03-13T05:54:23;94592.19;;;5.62;100.00
10093;BME280;5085;48.092;11.484;2023-03-13T05:56:54;94589.53;;;5.67;100.00
10093;BME280;5085;48.092;11.484;2023-03-13T05:59:33;94578.88;;;5.72;100.00
10093;BME280;5085;48.092;11.484;2023-03-13T06:02:21;94567.19;;;5.78;100.00
10093;BME280;5085;48.092;11.484;2023-03-13T06:04:49;94564.53;;;5.83;100.00
10093;BME280;5085;48.092;11.484;2023-03-13T06:07:15;94557.91;;;5.91;100.00
10093;BME280;5085;48.092;11.484;2023-03-13T06:09:41;94547.28;;;6.01;100.00
10093;BME280;5085;48.092;11.484;2023-03-13T06:12:09;94548.66;;;6.14;100.00
10093;BME280;5085;48.092;11.484;2023-03-13T06:14:35;94540.16;;;6.27;100.00
10093;BME280;5085;48.092;11.484;2023-03-13T06:17:19;94543.44;;;6.44;100.00
10093;BME280;5085;48.092;11.484;2023-03-13T06:19:45;94542.69;;;6.59;100.00
10093;BME280;5085;48.092;11.484;2023-03-13T06:22:12;94542.41;;;6.71;100.00
10093;BME280;5085;48.092;11.484;2023-03-13T06:24:38;94546.19;;;6.90;100.00
10093;BME280;5085;48.092;11.484;2023-03-13T06:27:04;94546.22;;;7.06;100.00
10093;BME280;5085;48.092;11.484;2023-03-13T06:29:31;94546.22;;;7.21;100.00
10093;BME280;5085;48.092;11.484;2023-03-13T06:31:57;94550.22;;;7.34;100.00
10093;BME280;5085;48.092;11.484;2023-03-13T06:34:23;94554.25;;;7.41;100.00
10093;BME280;5085;48.092;11.484;2023-03-13T06:36:49;94546.75;;;7.48;100.00
10093;BME280;5085;48.092;11.484;2023-03-13T06:39:15;94541.09;;;7.55;100.00
10093;BME280;5085;48.092;11.484;2023-03-13T06:41:41;94545.41;;;7.61;100.00
10093;BME280;5085;48.092;11.484;2023-03-13T06:44:07;94546.47;;;7.65;100.00
10093;BME280;5085;48.092;11.484;2023-03-13T06:46:33;94546.75;;;7.69;100.00
10093;BME280;5085;48.092;11.484;2023-03-13T06:48:59;94540.00;;;7.71;100.00
10093;BME280;5085;48.092;11.484;2023-03-13T06:51:29;94540.56;;;7.73;100.00
10093;BME280;5085;48.092;11.484;2023-03-13T06:53:55;94542.41;;;7.73;100.00
10093;BME280;5085;48.092;11.484;2023-03-13T06:56:22;94542.44;;;7.68;100.00
10093;BME280;5085;48.092;11.484;2023-03-13T06:58:51;94550.19;;;7.64;100.00
10093;BME280;5085;48.092;11.484;2023-03-13T07:01:42;94541.94;;;7.61;100.00
10093;BME280;5085;48.092;11.484;2023-03-13T07:04:25;94549.97;;;7.61;100.00
10093;BME280;5085;48.092;11.484;2023-03-13T07:06:59;94550.50;;;7.58;100.00
10093;BME280;5085;48.092;11.484;2023-03-13T07:09:33;94545.13;;;7.58;100.00
10093;BME280;5085;48.092;11.484;2023-03-13T07:12:15;94547.00;;;7.62;100.00
10093;BME280;5085;48.092;11.484;2023-03-13T07:14:58;94545.91;;;7.68;100.00
10093;BME280;5085;48.092;11.484;2023-03-13T07:17:31;94544.31;;;7.78;100.00
10093;BME280;5085;48.092;11.484;2023-03-13T07:20:05;94541.06;;;7.91;100.00
10093;BME280;5085;48.092;11.484;2023-03-13T07:22:52;94527.59;;;8.06;100.00
10093;BME280;5085;48.092;11.484;2023-03-13T07:25:38;94525.66;;;8.22;100.00
10093;BME280;5085;48.092;11.484;2023-03-13T07:28:14;94532.31;;;8.35;100.00
10093;BME280;5085;48.092;11.484;2023-03-13T07:30:52;94522.38;;;8.45;100.00
10093;BME280;5085;48.092;11.484;2023-03-13T07:33:28;94524.72;;;8.57;99.71
10093;BME280;5085;48.092;11.484;2023-03-13T07:36:21;94528.66;;;8.70;97.76
10093;BME280;5085;48.092;11.484;2023-03-13T07:39:00;94520.81;;;8.79;94.86
10093;BME280;5085;48.092;11.484;2023-03-13T07:41:34;94520.53;;;8.85;93.78
10093;BME280;5085;48.092;11.484;2023-03-13T07:44:00;94511.88;;;8.93;93.80
10093;BME280;5085;48.092;11.484;2023-03-13T07:46:35;94525.28;;;8.98;93.75
10093;BME280;5085;48.092;11.484;2023-03-13T07:49:07;94516.13;;;8.99;93.89
10093;BME280;5085;48.092;11.484;2023-03-13T07:51:48;94516.63;;;9.07;94.29
10093;BME280;5085;48.092;11.484;2023-03-13T07:54:26;94527.28;;;9.17;94.22
10093;BME280;5085;48.092;11.484;2023-03-13T07:56:57;94539.25;;;9.35;93.65
10093;BME280;5085;48.092;11.484;2023-03-13T07:59:33;94540.94;;;9.55;90.21
10093;BME280;5085;48.092;11.484;2023-03-13T08:02:08;94535.69;;;9.73;89.11
10093;BME280;5085;48.092;11.484;2023-03-13T08:04:45;94538.19;;;9.89;87.26
10093;BME280;5085;48.092;11.484;2023-03-13T08:07:32;94542.03;;;10.07;83.40
10093;BME280;5085;48.092;11.484;2023-03-13T08:10:07;94536.19;;;10.29;79.58
10093;BME280;5085;48.092;11.484;2023-03-13T08:12:40;94539.94;;;10.51;76.86
10093;BME280;5085;48.092;11.484;2023-03-13T08:15:26;94525.03;;;10.78;73.00
10093;BME280;5085;48.092;11.484;2023-03-13T08:17:57;94516.09;;;11.01;71.16
10093;BME280;5085;48.092;11.484;2023-03-13T08:20:44;94516.16;;;11.15;68.24
10093;BME280;5085;48.092;11.484;2023-03-13T08:23:20;94504.50;;;11.20;67.59
10093;BME280;5085;48.092;11.484;2023-03-13T08:26:19;94516.38;;;11.19;67.65
10093;BME280;5085;48.092;11.484;2023-03-13T08:28:54;94519.38;;;11.17;68.48
10093;BME280;5085;48.092;11.484;2023-03-13T08:31:32;94523.22;;;11.11;68.71
10093;BME280;5085;48.092;11.484;2023-03-13T08:34:21;94526.06;;;11.01;72.30
10093;BME280;5085;48.092;11.484;2023-03-13T08:40:16;94538.66;;;10.68;79.47
10093;BME280;5085;48.092;11.484;2023-03-13T08:43:06;94531.72;;;10.62;82.09
10093;BME280;5085;48.092;11.484;2023-03-13T08:45:44;94532.53;;;10.62;83.34
10093;BME280;5085;48.092;11.484;2023-03-13T08:48:16;94524.97;;;10.64;83.06
10093;BME280;5085;48.092;11.484;2023-03-13T08:51:05;94514.34;;;10.73;82.28
10093;BME280;5085;48.092;11.484;2023-03-13T08:53:43;94512.31;;;10.84;82.00
10093;BME280;5085;48.092;11.484;2023-03-13T08:56:39;94514.13;;;11.07;81.76
10093;BME280;5085;48.092;11.484;2023-03-13T08:59:22;94517.56;;;11.45;79.70
10093;BME280;5085;48.092;11.484;2023-03-13T09:02:15;94528.00;;;11.98;75.97
10093;BME280;5085;48.092;11.484;2023-03-13T09:05:04;94520.38;;;12.83;73.05
10093;BME280;5085;48.092;11.484;2023-03-13T09:07:45;94514.25;;;14.04;67.68
10093;BME280;5085;48.092;11.484;2023-03-13T09:10:14;94510.72;;;14.83;62.11
10093;BME280;5085;48.092;11.484;2023-03-13T09:12:48;94506.91;;;15.18;58.32
10093;BME280;5085;48.092;11.484;2023-03-13T09:15:32;94509.16;;;15.25;57.59
10093;BME280;5085;48.092;11.484;2023-03-13T09:18:01;94503.56;;;15.21;57.93
10093;BME280;5085;48.092;11.484;2023-03-13T09:20:37;94511.53;;;15.00;57.54
10093;BME280;5085;48.092;11.484;2023-03-13T09:23:04;94501.13;;;14.77;57.54
10093;BME280;5085;48.092;11.484;2023-03-13T09:25:31;94494.59;;;14.86;57.59
10093;BME280;5085;48.092;11.484;2023-03-13T09:27:58;94504.97;;;15.71;55.52
10093;BME280;5085;48.092;11.484;2023-03-13T09:30:27;94498.59;;;17.11;52.99
10093;BME280;5085;48.092;11.484;2023-03-13T09:32:56;94489.88;;;18.51;47.98
10093;BME280;5085;48.092;11.484;2023-03-13T09:35:22;94482.31;;;19.89;45.90
10093;BME280;5085;48.092;11.484;2023-03-13T09:37:56;94472.66;;;20.71;42.46
10093;BME280;5085;48.092;11.484;2023-03-13T09:40:29;94473.16;;;20.92;41.42
10093;BME280;5085;48.092;11.484;2023-03-13T09:43:17;94466.31;;;20.67;40.04
10093;BME280;5085;48.092;11.484;2023-03-13T09:45:57;94465.00;;;20.45;39.78
10093;BME280;5085;48.092;11.484;2023-03-13T09:54:50;94469.22;;;22.71;35.06
10093;BME280;5085;48.092;11.484;2023-03-13T09:57:33;94462.47;;;23.49;34.23
10093;BME280;5085;48.092;11.484;2023-03-13T10:00:18;94458.84;;;24.05;33.08
10093;BME280;5085;48.092;11.484;2023-03-13T10:06:11;94451.25;;;23.61;32.81
10093;BME280;5085;48.092;11.484;2023-03-13T10:08:47;94455.56;;;23.58;34.15
10093;BME280;5085;48.092;11.484;2023-03-13T10:11:33;94446.63;;;24.02;33.14
10093;BME280;5085;48.092;11.484;2023-03-13T10:17:42;94440.22;;;24.73;31.32
10093;BME280;5085;48.092;11.484;2023-03-13T10:20:22;94437.81;;;24.71;31.89
10093;BME280;5085;48.092;11.484;2023-03-13T10:23:29;94429.78;;;24.07;32.32
10093;BME280;5085;48.092;11.484;2023-03-13T10:26:13;94427.75;;;23.33;32.67
10093;BME280;5085;48.092;11.484;2023-03-13T10:28:56;94426.81;;;23.22;33.15
10093;BME280;5085;48.092;11.484;2023-03-13T10:34:28;94422.31;;;24.08;32.40
10093;BME280;5085;48.092;11.484;2023-03-13T10:37:10;94428.66;;;23.75;32.13
10093;BME280;5085;48.092;11.484;2023-03-13T10:39:45;94413.91;;;23.26;33.02
10093;BME280;5085;48.092;11.484;2023-03-13T10:42:22;94422.59;;;22.75;33.51
10093;BME280;5085;48.092;11.484;2023-03-13T10:44:57;94418.81;;;22.34;34.58
10093;BME280;5085;48.092;11.484;2023-03-13T10:47:23;94417.22;;;22.10;34.85
10093;BME280;5085;48.092;11.484;2023-03-13T10:49:51;94401.28;;;22.15;34.75
10093;BME280;5085;48.092;11.484;2023-03-13T10:52:45;94394.50;;;22.32;34.34
10093;BME280;5085;48.092;11.484;2023-03-13T10:55:17;94388.16;;;22.55;34.51
10093;BME280;5085;48.092;11.484;2023-03-13T10:58:03;94383.56;;;22.89;34.43
10093;BME280;5085;48.092;11.484;2023-03-13T11:00:38;94398.41;;;23.41;33.16
10093;BME280;5085;48.092;11.484;2023-03-13T11:03:06;94389.88;;;23.83;32.68
10093;BME280;5085;48.092;11.484;2023-03-13T11:05:58;94395.84;;;24.37;32.18
10093;BME280;5085;48.092;11.484;2023-03-13T11:08:26;94388.78;;;24.91;31.36
10093;BME280;5085;48.092;11.484;2023-03-13T11:10:56;94388.72;;;25.53;30.91
10093;BME280;5085;48.092;11.484;2023-03-13T11:13:35;94382.19;;;26.22;29.39
10093;BME280;5085;48.092;11.484;2023-03-13T11:16:15;94372.75;;;26.73;28.85
10093;BME280;5085;48.092;11.484;2023-03-13T11:19:00;94379.78;;;27.10;28.79
10093;BME280;5085;48.092;11.484;2023-03-13T11:21:56;94371.41;;;27.35;28.46
10093;BME280;5085;48.092;11.484;2023-03-13T11:24:45;94366.34;;;28.03;28.31
10093;BME280;5085;48.092;11.484;2023-03-13T11:32:43;94363.88;;;29.13;27.39
10093;BME280;5085;48.092;11.484;2023-03-13T11:38:14;94348.16;;;28.96;28.20
10093;BME280;5085;48.092;11.484;2023-03-13T11:46:27;94336.41;;;28.43;29.88
10093;BME280;5085;48.092;11.484;2023-03-13T11:49:22;94340.28;;;28.53;30.17
10093;BME280;5085;48.092;11.484;2023-03-13T11:51:58;94343.31;;;28.17;30.37
10093;BME280;5085;48.092;11.484;2023-03-13T11:57:04;94333.69;;;28.32;30.48
10093;BME280;5085;48.092;11.484;2023-03-13T12:02:36;94318.09;;;29.32;29.88
10093;BME280;5085;48.092;11.484;2023-03-13T12:05:14;94315.81;;;29.57;29.05
10093;BME280;5085;48.092;11.484;2023-03-13T12:11:17;94318.81;;;28.12;30.20
10093;BME280;5085;48.092;11.484;2023-03-13T12:13:55;94304.44;;;28.76;29.67
10093;BME280;5085;48.092;11.484;2023-03-13T12:16:31;94301.75;;;29.37;29.07
10093;BME280;5085;48.092;11.484;2023-03-13T12:19:02;94313.28;;;29.36;29.30
10093;BME280;5085;48.092;11.484;2023-03-13T12:21:46;94302.41;;;28.80;29.62
10093;BME280;5085;48.092;11.484;2023-03-13T12:24:33;94299.66;;;28.35;30.03
10093;BME280;5085;48.092;11.484;2023-03-13T12:27:11;94293.03;;;28.22;30.23
10093;BME280;5085;48.092;11.484;2023-03-13T12:32:36;94283.09;;;27.69;30.69
10093;BME280;5085;48.092;11.484;2023-03-13T12:35:21;94282.28;;;27.79;30.86
10093;BME280;5085;48.092;11.484;2023-03-13T12:38:14;94272.88;;;27.66;30.20
10093;BME280;5085;48.092;11.484;2023-03-13T12:43:20;94266.19;;;28.60;29.59
10093;BME280;5085;48.092;11.484;2023-03-13T12:46:15;94267.94;;;29.46;29.04
10093;BME280;5085;48.092;11.484;2023-03-13T12:49:04;94261.13;;;30.32;27.68
10093;BME280;5085;48.092;11.484;2023-03-13T12:51:59;94242.31;;;30.63;27.14
10093;BME280;5085;48.092;11.484;2023-03-13T13:00:26;94231.00;;;30.30;27.47
10093;BME280;5085;48.092;11.484;2023-03-13T13:06:14;94215.63;;;30.46;27.10
10093;BME280;5085;48.092;11.484;2023-03-13T13:16:59;94202.38;;;32.51;25.77
10093;BME280;5085;48.092;11.484;2023-03-13T13:19:43;94198.41;;;32.94;24.80
10093;BME280;5085;48.092;11.484;2023-03-13T13:30:28;94188.28;;;32.83;24.79
10093;BME280;5085;48.092;11.484;2023-03-13T13:35:46;94175.75;;;31.84;25.69
10093;BME280;5085;48.092;11.484;2023-03-13T13:41:01;94183.22;;;32.20;25.60
10093;BME280;5085;48.092;11.484;2023-03-13T13:43:42;94171.50;;;33.00;24.68
10093;BME280;5085;48.092;11.484;2023-03-13T13:46:30;94166.56;;;33.58;23.73
10093;BME280;5085;48.092;11.484;2023-03-13T13:51:30;94153.41;;;32.92;24.40
10093;BME280;5085;48.092;11.484;2023-03-13T13:54:02;94141.44;;;32.91;24.75
10093;BME280;5085;48.092;11.484;2023-03-13T13:56:38;94135.34;;;32.96;24.86
10093;BME280;5085;48.092;11.484;2023-03-13T14:01:49;94126.59;;;32.40;25.17
10093;BME280;5085;48.092;11.484;2023-03-13T14:04:32;94126.31;;;31.89;25.59
10093;BME280;5085;48.092;11.484;2023-03-13T14:07:02;94103.50;;;31.94;26.00
10093;BME280;5085;48.092;11.484;2023-03-13T14:09:46;94104.81;;;31.89;25.72
10093;BME280;5085;48.092;11.484;2023-03-13T14:12:36;94099.91;;;32.09;25.16
10093;BME280;5085;48.092;11.484;2023-03-13T14:18:18;94093.00;;;32.14;24.61
10093;BME280;5085;48.092;11.484;2023-03-13T14:20:54;94073.13;;;31.99;25.18
10093;BME280;5085;48.092;11.484;2023-03-13T14:23:32;94064.69;;;31.87;25.40
10093;BME280;5085;48.092;11.484;2023-03-13T14:26:29;94058.28;;;31.57;25.56
10093;BME280;5085;48.092;11.484;2023-03-13T14:28:56;94060.78;;;31.51;25.57
10093;BME280;5085;48.092;11.484;2023-03-13T14:33:52;94054.25;;;31.25;26.10
10093;BME280;5085;48.092;11.484;2023-03-13T14:36:18;94040.09;;;30.47;26.36
10093;BME280;5085;48.092;11.484;2023-03-13T14:38:56;94033.47;;;29.34;28.00
10093;BME280;5085;48.092;11.484;2023-03-13T14:41:37;94027.34;;;28.08;30.06
10093;BME280;5085;48.092;11.484;2023-03-13T14:44:16;94021.66;;;26.98;31.21
10093;BME280;5085;48.092;11.484;2023-03-13T14:46:45;94022.88;;;26.27;32.65
10093;BME280;5085;48.092;11.484;2023-03-13T14:49:20;94010.91;;;25.57;33.78
10093;BME280;5085;48.092;11.484;2023-03-13T14:54:28;93993.66;;;24.56;35.42
10093;BME280;5085;48.092;11.484;2023-03-13T14:57:24;93988.81;;;24.10;35.49
10093;BME280;5085;48.092;11.484;2023-03-13T14:59:52;93985.94;;;23.71;36.02
10093;BME280;5085;48.092;11.484;2023-03-13T15:02:25;93974.38;;;23.44;37.18
10093;BME280;5085;48.092;11.484;2023-03-13T15:05:03;93966.78;;;23.16;37.51
10093;BME280;5085;48.092;11.484;2023-03-13T15:07:38;93961.94;;;22.95;38.04
10093;BME280;5085;48.092;11.484;2023-03-13T15:10:23;93954.34;;;22.78;38.70
10093;BME280;5085;48.092;11.484;2023-03-13T15:12:50;93948.28;;;22.54;38.81
10093;BME280;5085;48.092;11.484;2023-03-13T15:15:17;93943.81;;;22.35;39.35
10093;BME280;5085;48.092;11.484;2023-03-13T15:17:46;93935.78;;;22.16;39.75
10093;BME280;5085;48.092;11.484;2023-03-13T15:22:41;93927.09;;;21.73;40.77